createdAt,value
2023-08-26T00:04:34.512Z,98888.25
2023-08-26T00:07:24.710Z,98920.72
2023-08-26T00:10:14.880Z,98907.31
2023-08-26T00:13:05.070Z,98905.19
2023-08-26T00:29:09.686Z,98936.63
2023-08-26T00:31:59.948Z,98941.88
2023-08-26T00:34:50.156Z,98913.41
2023-08-26T00:37:40.366Z,98892.31
2023-08-26T00:40:32.326Z,98884.34
2023-08-26T00:43:22.845Z,98891.56
2023-08-26T00:46:16.341Z,98912.34
2023-08-26T00:49:07.435Z,98898.72
2023-08-26T00:51:59.483Z,98929.75
2023-08-26T00:54:49.842Z,98926.13
2023-08-26T00:57:40.092Z,98921.00
2023-08-26T01:00:30.397Z,98928.97
2023-08-26T01:03:24.083Z,98903.69
2023-08-26T01:06:14.305Z,98884.66
2023-08-26T01:09:04.593Z,98875.78
2023-08-26T01:12:05.583Z,98874.19
2023-08-26T01:15:02.845Z,98858.41
2023-08-26T01:17:54.869Z,98869.53
2023-08-26T01:20:48.265Z,98865.84
2023-08-26T01:23:44.933Z,98890.53
2023-08-26T01:26:35.194Z,98945.25
2023-08-26T01:29:25.810Z,98950.50
2023-08-26T01:32:22.256Z,98955.38
2023-08-26T01:35:17.220Z,98918.88
2023-08-26T01:38:09.428Z,98904.78
2023-08-26T01:41:06.121Z,98908.44
2023-08-26T01:43:57.410Z,98859.38
2023-08-26T01:46:49.096Z,98856.81
2023-08-26T01:49:39.438Z,98854.75
2023-08-26T01:52:29.905Z,98899.63
2023-08-26T01:55:20.229Z,98922.72
2023-08-26T01:58:13.085Z,98898.00
2023-08-26T02:01:08.098Z,98909.97
2023-08-26T02:03:58.426Z,98899.38
2023-08-26T02:06:48.695Z,98867.47
2023-08-26T02:09:38.965Z,98873.66
2023-08-26T02:12:29.955Z,98878.13
2023-08-26T02:15:22.887Z,98859.06
2023-08-26T02:18:13.141Z,98873.56
2023-08-26T02:21:03.852Z,98922.00
2023-08-26T02:23:54.069Z,98919.09
2023-08-26T02:26:44.341Z,98904.16
2023-08-26T02:29:34.642Z,98942.88
2023-08-26T02:32:27.579Z,98977.84
2023-08-26T02:35:17.913Z,98992.78
2023-08-26T02:38:08.236Z,98984.75
2023-08-26T02:40:59.193Z,98964.53
2023-08-26T02:43:50.552Z,98970.78
2023-08-26T02:46:40.742Z,98951.72
2023-08-26T02:49:35.788Z,98958.78
2023-08-26T02:52:26.251Z,98972.84
2023-08-26T02:55:16.422Z,98992.94
2023-08-26T02:58:06.952Z,98992.84
2023-08-26T03:00:58.457Z,98985.06
2023-08-26T03:03:48.796Z,98993.31
2023-08-26T03:06:41.809Z,99028.06
2023-08-26T03:09:34.398Z,99025.34
2023-08-26T03:12:24.596Z,99038.88
2023-08-26T03:15:14.890Z,99050.00
2023-08-26T03:18:05.516Z,99043.66
2023-08-26T03:20:55.775Z,99056.09
2023-08-26T03:23:49.526Z,99041.88
2023-08-26T03:37:16.155Z,99025.34
2023-08-26T03:40:10.640Z,99022.09
2023-08-26T03:43:01.537Z,99030.97
2023-08-26T03:45:51.738Z,99019.72
2023-08-26T03:48:42.049Z,99008.41
2023-08-26T03:51:32.358Z,99003.34
2023-08-26T03:54:25.724Z,99009.47
2023-08-26T03:57:15.965Z,99041.09
2023-08-26T04:00:07.146Z,99054.78
2023-08-26T04:02:57.356Z,99045.31
2023-08-26T04:05:47.658Z,99031.97
2023-08-26T04:08:37.940Z,99016.97
2023-08-26T04:11:30.722Z,99053.84
2023-08-26T04:14:20.981Z,99053.31
2023-08-26T04:17:11.207Z,99037.88
2023-08-26T04:20:02.225Z,99030.91
2023-08-26T04:22:52.405Z,99062.31
2023-08-26T04:25:43.180Z,99085.63
2023-08-26T04:28:36.037Z,99086.94
2023-08-26T04:31:26.449Z,99098.63
2023-08-26T04:34:16.722Z,99118.41
2023-08-26T04:37:07.166Z,99145.47
2023-08-26T04:39:57.342Z,99137.09
2023-08-26T04:42:47.571Z,99132.72
2023-08-26T04:45:41.936Z,99123.88
2023-08-26T04:48:32.382Z,99110.91
2023-08-26T04:51:22.572Z,99110.56
2023-08-26T04:54:12.796Z,99108.09
2023-08-26T04:57:03.578Z,99099.69
2023-08-26T04:59:53.857Z,99101.88
2023-08-26T05:02:46.797Z,99122.63
2023-08-26T05:05:37.071Z,99143.53
2023-08-26T05:08:27.253Z,99143.50
2023-08-26T05:11:17.466Z,99149.75
2023-08-26T05:14:07.751Z,99112.88
2023-08-26T05:16:58.248Z,99069.53
2023-08-26T05:19:52.791Z,99062.13
2023-08-26T05:22:45.194Z,99033.75
2023-08-26T05:25:35.442Z,99044.06
2023-08-26T05:28:25.723Z,99026.16
2023-08-26T05:31:16.097Z,99026.06
2023-08-26T05:34:06.469Z,99022.34
2023-08-26T05:36:59.265Z,99009.97
2023-08-26T05:39:49.511Z,98998.88
2023-08-26T05:42:40.423Z,99022.00
2023-08-26T05:45:30.793Z,99051.41
2023-08-26T05:48:21.002Z,99046.19
2023-08-26T05:51:11.195Z,99037.44
2023-08-26T05:54:04.151Z,99028.31
2023-08-26T05:56:54.587Z,99025.06
2023-08-26T05:59:45.070Z,99020.53
2023-08-26T06:02:35.407Z,98989.41
2023-08-26T06:05:25.639Z,98998.09
2023-08-26T06:08:17.092Z,98996.19
2023-08-26T06:11:09.929Z,99015.19
2023-08-26T06:14:00.120Z,99012.34
2023-08-26T06:16:51.038Z,99014.66
2023-08-26T06:19:41.241Z,99022.63
2023-08-26T06:22:31.876Z,99031.00
2023-08-26T06:25:22.087Z,99022.78
2023-08-26T06:28:14.861Z,99022.72
2023-08-26T06:31:05.386Z,99032.38
2023-08-26T06:34:01.407Z,99046.72
2023-08-26T06:36:51.676Z,99042.81
2023-08-26T06:39:41.891Z,99043.38
2023-08-26T06:42:32.091Z,99043.00
2023-08-26T06:45:28.120Z,99049.41
2023-08-26T06:48:18.812Z,99052.94
2023-08-26T06:51:09.152Z,99048.06
2023-08-26T06:53:59.401Z,99036.41
2023-08-26T06:56:49.709Z,99010.09
2023-08-26T06:59:39.875Z,98998.72
2023-08-26T07:02:32.730Z,98989.44
2023-08-26T07:05:23.478Z,98978.84
2023-08-26T07:08:13.756Z,98968.97
2023-08-26T07:11:03.927Z,98987.66
2023-08-26T07:13:54.227Z,98985.91
2023-08-26T07:16:44.525Z,98981.25
2023-08-26T07:19:37.330Z,98964.72
2023-08-26T07:22:29.865Z,98964.25
2023-08-26T07:25:21.535Z,98955.31
2023-08-26T07:28:11.700Z,98950.34
2023-08-26T07:31:05.732Z,98959.84
2023-08-26T07:33:56.018Z,98968.69
2023-08-26T07:36:48.825Z,98974.22
2023-08-26T07:39:39.025Z,98983.31
2023-08-26T07:42:29.276Z,98979.22
2023-08-26T07:45:20.567Z,98984.34
2023-08-26T07:51:03.922Z,98980.38
2023-08-26T07:53:56.898Z,98974.81
2023-08-26T07:56:47.114Z,98976.34
2023-08-26T07:59:37.366Z,98980.97
2023-08-26T08:02:27.663Z,98978.31
2023-08-26T08:05:18.052Z,98974.25
2023-08-26T08:08:08.611Z,98967.44
2023-08-26T08:11:01.480Z,98956.28
2023-08-26T08:13:51.906Z,98948.44
2023-08-26T08:16:42.179Z,98953.13
2023-08-26T08:19:32.362Z,98949.22
2023-08-26T08:22:36.546Z,98956.00
2023-08-26T08:25:26.893Z,98961.38
2023-08-26T08:28:19.746Z,98959.47
2023-08-26T08:31:10.040Z,98968.19
2023-08-26T08:34:00.402Z,98974.22
2023-08-26T08:36:50.739Z,98982.13
2023-08-26T08:39:40.960Z,98992.25
2023-08-26T08:42:36.049Z,98990.63
2023-08-26T08:45:29.816Z,98993.13
2023-08-26T08:48:21.304Z,99014.28
2023-08-26T08:51:14.434Z,99028.69
2023-08-26T08:54:06.693Z,99021.28
2023-08-26T08:56:58.180Z,99032.34
2023-08-26T08:59:49.514Z,99011.66
2023-08-26T09:02:44.191Z,98996.75
2023-08-26T09:05:34.838Z,99000.72
2023-08-26T09:08:28.086Z,99007.25
2023-08-26T09:11:19.502Z,99004.63
2023-08-26T09:14:10.063Z,99002.91
2023-08-26T09:17:01.508Z,99018.31
2023-08-26T09:19:59.922Z,99025.75
2023-08-26T09:22:50.296Z,99027.19
2023-08-26T09:25:40.583Z,99026.69
2023-08-26T09:28:30.799Z,99023.28
2023-08-26T09:31:22.002Z,99027.91
2023-08-26T09:34:12.275Z,99029.28
2023-08-26T09:37:05.135Z,99019.19
2023-08-26T09:39:55.398Z,99027.13
2023-08-26T09:42:46.134Z,99028.84
2023-08-26T09:45:39.796Z,99020.00
2023-08-26T09:48:29.996Z,99012.03
2023-08-26T09:51:28.953Z,99026.28
2023-08-26T09:54:23.324Z,99029.53
2023-08-26T09:57:13.593Z,99025.81
2023-08-26T10:00:04.419Z,99009.47
2023-08-26T10:03:05.420Z,99008.34
2023-08-26T10:05:58.313Z,99016.66
2023-08-26T10:08:55.635Z,99020.91
2023-08-26T10:11:52.861Z,99010.56
2023-08-26T10:14:44.438Z,99031.81
2023-08-26T10:17:36.455Z,99029.56
2023-08-26T10:20:27.005Z,99030.97
2023-08-26T10:23:17.214Z,99032.03
2023-08-26T10:26:08.227Z,99026.47
2023-08-26T10:29:02.565Z,99029.03
2023-08-26T10:31:52.885Z,99024.59
2023-08-26T10:34:56.022Z,99026.19
2023-08-26T10:37:49.494Z,99027.72
2023-08-26T10:40:39.820Z,99027.41
2023-08-26T10:43:30.019Z,99030.19
2023-08-26T10:46:34.114Z,99033.44
2023-08-26T10:49:26.722Z,99025.50
2023-08-26T10:52:20.377Z,99022.75
2023-08-26T10:55:16.925Z,99018.34
2023-08-26T10:58:17.838Z,99026.25
2023-08-26T11:01:08.297Z,99023.91
2023-08-26T11:04:01.591Z,99026.38
2023-08-26T11:06:52.095Z,99024.19
2023-08-26T11:09:42.260Z,99023.13
2023-08-26T11:12:33.312Z,99033.22
2023-08-26T11:15:23.585Z,99041.78
2023-08-26T11:18:14.929Z,99040.91
2023-08-26T11:21:09.434Z,99042.03
2023-08-26T11:24:02.161Z,99041.34
2023-08-26T11:26:52.408Z,99032.03
2023-08-26T11:29:42.634Z,99028.59
2023-08-26T11:32:34.368Z,99026.75
2023-08-26T11:35:27.608Z,99029.75
2023-08-26T11:38:20.480Z,99044.84
2023-08-26T11:41:11.657Z,99034.38
2023-08-26T11:44:02.142Z,99029.97
2023-08-26T11:46:55.201Z,99029.25
2023-08-26T11:49:46.382Z,99037.28
2023-08-26T11:52:36.957Z,99030.72
2023-08-26T11:55:30.162Z,99024.41
2023-08-26T11:58:21.891Z,99031.94
2023-08-26T12:01:12.216Z,99032.75
2023-08-26T12:04:02.486Z,99034.56
2023-08-26T12:06:52.840Z,99034.56
2023-08-26T12:09:43.589Z,99044.72
2023-08-26T12:12:36.487Z,99037.09
2023-08-26T12:15:26.703Z,99042.56
2023-08-26T12:18:17.009Z,99050.69
2023-08-26T12:21:07.361Z,99044.50
2023-08-26T12:23:57.589Z,99042.69
2023-08-26T12:26:48.564Z,99045.84
2023-08-26T12:29:41.585Z,99035.50
2023-08-26T12:32:31.724Z,99041.41
2023-08-26T12:35:21.923Z,99045.38
2023-08-26T12:38:12.148Z,99048.94
2023-08-26T12:41:03.223Z,99050.44
2023-08-26T12:43:56.568Z,99038.84
2023-08-26T12:46:49.553Z,99049.56
2023-08-26T12:49:39.792Z,99051.72
2023-08-26T12:52:30.669Z,99054.78
2023-08-26T12:55:21.353Z,99060.00
2023-08-26T12:58:11.562Z,99056.88
2023-08-26T13:01:01.879Z,99054.91
2023-08-26T13:03:54.722Z,99052.00
2023-08-26T13:06:45.154Z,99060.75
2023-08-26T13:09:35.355Z,99055.22
2023-08-26T13:12:25.593Z,99057.38
2023-08-26T13:15:16.365Z,99058.34
2023-08-26T13:18:07.065Z,99058.94
2023-08-26T13:21:00.044Z,99058.91
2023-08-26T13:23:50.599Z,99057.97
2023-08-26T13:26:40.753Z,99068.75
2023-08-26T13:29:31.011Z,99066.50
2023-08-26T13:32:21.176Z,99066.75
2023-08-26T13:35:12.101Z,99067.13
2023-08-26T13:38:04.972Z,99077.91
2023-08-26T13:40:55.194Z,99070.97
2023-08-26T13:43:45.811Z,99069.25
2023-08-26T13:46:35.994Z,99068.50
2023-08-26T13:49:26.922Z,99062.91
2023-08-26T13:52:18.247Z,99075.88
2023-08-26T13:55:12.425Z,99074.84
2023-08-26T13:58:03.182Z,99069.97
2023-08-26T14:00:54.211Z,99058.63
2023-08-26T14:03:44.551Z,99053.81
2023-08-26T14:06:34.743Z,99053.63
2023-08-26T14:09:26.483Z,99051.50
2023-08-26T14:12:19.255Z,99052.50
2023-08-26T14:15:12.032Z,99060.53
2023-08-26T14:18:02.396Z,99055.03
2023-08-26T14:20:53.885Z,99052.59
2023-08-26T14:23:45.708Z,99044.59
2023-08-26T14:26:37.766Z,99050.28
2023-08-26T14:29:30.647Z,99032.09
2023-08-26T14:32:20.940Z,99036.56
2023-08-26T14:35:12.060Z,99056.13
2023-08-26T14:38:02.596Z,99059.00
2023-08-26T14:40:53.502Z,99067.88
2023-08-26T14:43:43.956Z,99069.34
2023-08-26T14:46:37.230Z,99072.22
2023-08-26T14:49:28.004Z,99067.72
2023-08-26T14:52:18.382Z,99057.50
2023-08-26T14:55:09.745Z,99059.41
2023-08-26T14:58:00.165Z,99065.06
2023-08-26T15:00:50.559Z,99061.66
2023-08-26T15:03:43.364Z,99063.66
2023-08-26T15:06:33.602Z,99062.84
2023-08-26T15:09:23.761Z,99050.69
2023-08-26T15:12:14.635Z,99060.16
2023-08-26T15:15:04.796Z,99046.47
2023-08-26T15:17:55.030Z,99049.53
2023-08-26T15:20:52.320Z,99039.22
2023-08-26T15:23:43.209Z,99056.28
2023-08-26T15:26:33.390Z,99056.78
2023-08-26T15:29:23.702Z,99053.00
2023-08-26T15:32:14.193Z,99060.25
2023-08-26T15:35:04.634Z,99060.31
2023-08-26T15:37:57.773Z,99045.19
2023-08-26T15:40:54.677Z,99050.00
2023-08-26T15:43:44.645Z,99070.38
2023-08-26T15:46:34.844Z,99068.44
2023-08-26T15:49:25.078Z,99063.88
2023-08-26T15:52:15.213Z,99060.63
2023-08-26T15:55:08.724Z,99057.94
2023-08-26T15:57:59.129Z,99059.13
2023-08-26T16:00:50.023Z,99047.56
2023-08-26T16:03:40.295Z,99036.50
2023-08-26T16:06:30.520Z,99031.34
2023-08-26T16:09:21.030Z,99024.47
2023-08-26T16:12:17.875Z,99034.06
2023-08-26T16:15:09.604Z,99029.19
2023-08-26T16:17:59.798Z,99037.78
2023-08-26T16:20:50.002Z,99037.59
2023-08-26T16:23:40.194Z,99034.94
2023-08-26T16:26:30.358Z,99030.09
2023-08-26T16:29:23.154Z,99029.91
2023-08-26T16:32:13.438Z,99031.56
2023-08-26T16:35:05.037Z,99029.56
2023-08-26T16:37:55.237Z,99039.28
2023-08-26T16:40:45.422Z,99047.75
2023-08-26T16:43:35.625Z,99052.00
2023-08-26T16:46:28.464Z,99045.25
2023-08-26T16:49:18.892Z,99057.97
2023-08-26T16:52:09.355Z,99057.06
2023-08-26T16:54:59.553Z,99068.50
2023-08-26T16:57:49.752Z,99057.78
2023-08-26T17:00:40.100Z,99061.53
2023-08-26T17:03:32.908Z,99065.63
2023-08-26T17:06:23.151Z,99076.16
2023-08-26T17:09:13.459Z,99084.69
2023-08-26T17:12:04.579Z,99075.13
2023-08-26T17:14:54.866Z,99074.25
2023-08-26T17:17:45.172Z,99069.81
2023-08-26T17:20:38.022Z,99075.75
2023-08-26T17:23:28.293Z,99065.00
2023-08-26T17:26:18.527Z,99068.75
2023-08-26T17:29:08.852Z,99068.53
2023-08-26T17:31:59.121Z,99079.59
2023-08-26T17:34:49.305Z,99083.75
2023-08-26T17:37:42.314Z,99084.72
2023-08-26T17:40:32.727Z,99086.94
2023-08-26T17:43:23.184Z,99079.34
2023-08-26T17:46:13.464Z,99089.69
2023-08-26T17:49:03.945Z,99092.47
2023-08-26T17:51:54.445Z,99086.16
2023-08-26T17:54:47.258Z,99097.72
2023-08-26T17:57:37.561Z,99091.66
2023-08-26T18:00:27.749Z,99089.91
2023-08-26T18:03:18.420Z,99097.31
2023-08-26T18:06:08.672Z,99105.00
2023-08-26T18:08:58.826Z,99113.78
2023-08-26T18:11:51.812Z,99102.69
2023-08-26T18:14:42.050Z,99110.22
2023-08-26T18:17:33.044Z,99111.88
2023-08-26T18:20:23.303Z,99118.25
2023-08-26T18:23:13.549Z,99118.44
2023-08-26T18:26:03.829Z,99118.97
2023-08-26T18:28:56.844Z,99117.97
2023-08-26T18:31:47.971Z,99122.56
2023-08-26T18:34:38.889Z,99119.13
2023-08-26T18:37:31.941Z,99127.47
2023-08-26T18:40:25.547Z,99124.50
2023-08-26T18:43:16.740Z,99121.97
2023-08-26T18:46:09.825Z,99118.78
2023-08-26T18:49:00.419Z,99117.66
2023-08-26T18:51:50.617Z,99112.91
2023-08-26T18:54:41.148Z,99118.47
2023-08-26T18:57:31.451Z,99113.38
2023-08-26T19:00:21.990Z,99115.81
2023-08-26T19:03:15.068Z,99117.97
2023-08-26T19:06:05.257Z,99117.22
2023-08-26T19:08:55.470Z,99114.34
2023-08-26T19:11:46.000Z,99127.19
2023-08-26T19:14:36.197Z,99116.22
2023-08-26T19:17:26.751Z,99114.41
2023-08-26T19:20:19.832Z,99107.75
2023-08-26T19:23:10.584Z,99107.56
2023-08-26T19:26:00.770Z,99107.72
2023-08-26T19:28:52.192Z,99113.84
2023-08-26T19:31:42.516Z,99104.97
2023-08-26T19:34:32.887Z,99124.13
2023-08-26T19:37:25.914Z,99129.94
2023-08-26T19:40:17.457Z,99127.03
2023-08-26T19:43:08.510Z,99128.31
2023-08-26T19:45:58.791Z,99127.88
2023-08-26T19:48:56.051Z,99129.47
2023-08-26T19:51:47.027Z,99129.78
2023-08-26T19:54:40.232Z,99129.78
2023-08-26T19:57:30.684Z,99128.81
2023-08-26T20:00:21.371Z,99122.63
2023-08-26T20:03:11.595Z,99121.84
2023-08-26T20:06:02.063Z,99119.19
2023-08-26T20:08:53.311Z,99127.47
2023-08-26T20:11:46.822Z,99111.78
2023-08-26T20:14:37.546Z,99109.47
2023-08-26T20:17:28.042Z,99104.81
2023-08-26T20:20:19.075Z,99116.88
2023-08-26T20:23:09.358Z,99115.38
2023-08-26T20:26:01.221Z,99121.81
2023-08-26T20:28:54.435Z,99127.25
2023-08-26T20:31:44.989Z,99118.09
2023-08-26T20:34:35.282Z,99105.56
2023-08-26T20:37:27.017Z,99112.22
2023-08-26T20:40:17.972Z,99103.81
2023-08-26T20:43:08.407Z,99106.72
2023-08-26T20:46:01.598Z,99107.88
2023-08-26T20:48:51.854Z,99116.06
2023-08-26T20:51:42.221Z,99121.16
2023-08-26T20:54:32.842Z,99125.84
2023-08-26T20:57:23.556Z,99121.03
2023-08-26T21:00:14.842Z,99128.19
2023-08-26T21:03:08.618Z,99131.50
2023-08-26T21:06:04.704Z,99137.09
2023-08-26T21:08:54.990Z,99149.66
2023-08-26T21:11:46.525Z,99152.13
2023-08-26T21:14:36.815Z,99166.41
2023-08-26T21:17:27.289Z,99180.13
2023-08-26T21:20:20.504Z,99179.94
2023-08-26T21:23:12.370Z,99177.19
2023-08-26T21:26:02.952Z,99184.13
2023-08-26T21:28:53.348Z,99188.34
2023-08-26T21:31:43.839Z,99180.50
2023-08-26T21:34:34.109Z,99184.81
2023-08-26T21:37:27.189Z,99171.91
2023-08-26T21:40:19.960Z,99171.69
2023-08-26T21:43:12.723Z,99164.41
2023-08-26T21:46:03.547Z,99168.31
2023-08-26T21:48:54.419Z,99161.00
2023-08-26T21:51:44.811Z,99157.41
2023-08-26T21:54:37.667Z,99173.81
2023-08-26T21:57:28.629Z,99172.13
2023-08-26T22:00:19.441Z,99173.56
2023-08-26T22:03:09.722Z,99179.72
2023-08-26T22:06:00.473Z,99187.94
2023-08-26T22:08:50.924Z,99188.25
2023-08-26T22:11:43.777Z,99178.25
2023-08-26T22:14:34.665Z,99177.97
2023-08-26T22:17:27.356Z,99171.78
2023-08-26T22:20:18.220Z,99177.53
2023-08-26T22:23:08.940Z,99172.06
2023-08-26T22:25:59.139Z,99181.47
2023-08-26T22:28:51.913Z,99181.69
2023-08-26T22:31:42.146Z,99179.59
2023-08-26T22:34:32.516Z,99185.97
2023-08-26T22:37:22.917Z,99184.66
2023-08-26T22:40:15.921Z,99197.31
2023-08-26T22:43:06.332Z,99196.44
2023-08-26T22:45:59.241Z,99194.00
2023-08-26T22:48:49.457Z,99191.28
2023-08-26T22:51:39.676Z,99184.66
2023-08-26T22:54:29.946Z,99179.31
2023-08-26T22:57:20.509Z,99177.34
2023-08-26T23:00:11.849Z,99180.47
2023-08-26T23:03:04.644Z,99179.59
2023-08-26T23:06:03.114Z,99181.66
2023-08-26T23:08:53.300Z,99167.63
2023-08-26T23:11:43.514Z,99156.22
2023-08-26T23:14:33.787Z,99149.38
2023-08-26T23:17:26.279Z,99149.59
2023-08-26T23:20:19.346Z,99131.22
2023-08-26T23:23:09.677Z,99136.31
2023-08-26T23:25:59.837Z,99125.53
2023-08-26T23:28:50.083Z,99134.78
2023-08-26T23:31:40.408Z,99122.13
2023-08-26T23:34:31.051Z,99115.97
2023-08-26T23:37:23.829Z,99104.00
2023-08-26T23:40:14.971Z,99098.69
2023-08-26T23:43:05.294Z,99091.59
2023-08-26T23:45:56.152Z,99093.56
2023-08-26T23:48:46.355Z,99090.97
2023-08-26T23:51:36.562Z,99091.63
2023-08-26T23:54:29.367Z,99099.97
2023-08-26T23:57:19.609Z,99108.56
